Latest Weather Observations for Newcastle Nobbys

IDN60901

Issued at 8:35 pm EST Thursday 24 July 2014 (issued every 10 minutes, with the page automatically refreshed every 10 minutes)

About weather observations | Map of Sydney area stations | Latest observations for Sydney area | Other Formats
Station Details ID: 061055 Name: NEWCASTLE NOBBYS SIGNAL STATION AWS Lat: -32.92 Lon: 151.80 Height: 33.0 m
Data from the previous 72 hours. | See also: Recent months at Newcastle Nobbys
Date/Time
EST
Tmp

°C
App
Tmp
°C
Dew
Point
°C
Rel
Hum
%
Delta-T

°C
Wind Press
QNH
hPa
Press
MSL
hPa
Rain
since
9 am
mm
Dir
 
Spd
km/h
Gust
km/h
Spd
kts
Gust
kts
24/08:30pm 15.2 14.2 12.2 82 1.6 N 9 11 5 6 - - 0.0
24/08:00pm 15.4 13.5 11.8 79 1.9 NNE 13 15 7 8 - - 0.0
24/07:30pm 15.8 15.0 11.8 77 2.2 N 7 7 4 4 - - 0.0
24/07:00pm 16.3 15.4 12.5 78 2.1 NNE 9 13 5 7 - - 0.0
24/06:30pm 16.4 15.8 12.4 77 2.2 NE 7 11 4 6 - - 0.0
24/06:00pm 15.7 16.3 11.9 78 2.1 NNE 0 0 0 0 - - 0.0
24/05:30pm 15.5 15.9 11.3 76 2.3 CALM 0 0 0 0 - - 0.0
24/05:00pm 15.6 15.6 11.2 75 2.4 NNE 2 4 1 2 - - 0.0
24/04:30pm 15.7 14.1 10.2 70 2.9 N 9 9 5 5 - - 0.0
24/04:00pm 15.8 14.7 10.8 72 2.7 N 7 9 4 5 - - 0.0
24/03:30pm 15.9 13.9 10.0 68 3.1 N 11 13 6 7 - - 0.0
24/03:00pm 16.2 14.6 10.3 68 3.1 N 9 11 5 6 - - 0.0
24/02:30pm 15.9 14.3 10.2 69 3.0 N 9 9 5 5 - - 0.0
24/02:00pm 15.8 13.9 10.6 71 2.8 N 11 11 6 6 - - 0.0
24/01:30pm 16.6 14.8 10.7 68 3.1 NNW 11 15 6 8 - - 0.0
24/01:00pm 15.1 12.8 10.3 73 2.5 NW 13 17 7 9 - - 0.0
24/12:30pm 14.4 12.0 10.0 75 2.3 N 13 17 7 9 - - 0.0
24/12:00pm 15.9 14.1 10.9 72 2.7 NNW 11 15 6 8 - - 0.0
24/11:30am 14.6 13.2 11.0 79 1.9 NW 9 15 5 8 - - 0.0
24/11:00am 13.0 10.3 10.5 85 1.3 N 15 17 8 9 - - 0.0
24/10:30am 12.6 10.1 9.8 83 1.4 N 13 17 7 9 - - 0.0
24/10:00am 12.4 11.1 9.8 84 1.3 NW 7 11 4 6 - - 0.0
24/09:30am 12.6 9.6 9.4 81 1.6 NW 15 19 8 10 - - 0.0
24/09:00am 11.8 10.0 9.5 86 1.2 NNW 9 11 5 6 - - 0.0
24/08:30am 11.4 10.1 9.3 87 1.1 NW 6 7 3 4 - - 0.0
24/08:00am 10.9 9.5 9.5 91 0.7 NW 7 7 4 4 - - 0.0
24/07:30am 10.4 8.9 9.2 92 0.6 NW 7 9 4 5 - - 0.0
24/07:00am 10.6 9.4 9.4 92 0.6 NW 6 7 3 4 - - 0.0
24/06:30am 10.9 9.5 9.7 92 0.6 NW 7 7 4 4 - - 0.0
24/06:00am 11.2 9.9 10.0 92 0.6 NW 7 9 4 5 - - 0.0
24/05:30am 12.2 10.9 10.1 87 1.1 NW 7 7 4 4 - - 0.0
24/05:00am 13.6 12.1 10.6 82 1.6 NNE 9 15 5 8 - - 0.0
24/04:30am 13.1 12.0 10.6 85 1.3 NE 7 11 4 6 - - 0.0
24/04:00am 12.7 11.6 10.8 88 1.0 N 7 9 4 5 - - 0.0
24/03:30am 12.4 11.5 10.5 88 1.0 N 6 13 3 7 - - 0.0
24/03:00am 12.2 12.4 10.4 89 0.9 CALM 0 2 0 1 - - 0.0
24/02:30am 11.9 11.2 10.1 89 0.9 NW 4 4 2 2 - - 0.0
24/02:00am 11.9 11.1 9.8 87 1.1 WNW 4 6 2 3 - - 0.0
24/01:30am 12.0 10.9 10.1 88 1.0 NW 6 7 3 4 - - 0.0
24/01:00am 12.1 11.0 10.0 87 1.1 WNW 6 7 3 4 - - 0.0
24/12:30am 12.3 11.3 10.2 87 1.1 WNW 6 7 3 4 - - 0.0
24/12:00am 12.3 11.3 10.2 87 1.1 WNW 6 7 3 4 - - 0.0
 
Date/Time
EST
Tmp

°C
App
Tmp
°C
Dew
Point
°C
Rel
Hum
%
Delta-T

°C
Wind Press
QNH
hPa
Press
MSL
hPa
Rain
since
9 am
mm
Dir
 
Spd
km/h
Gust
km/h
Spd
kts
Gust
kts
23/11:30pm 12.3 11.1 10.4 88 1.0 WNW 7 7 4 4 - - 0.0
23/11:00pm 12.8 11.9 10.5 86 1.2 NW 6 7 3 4 - - 0.0
23/10:30pm 14.1 13.6 10.7 80 1.8 WNW 4 6 2 3 - - 0.0
23/10:00pm 13.9 13.3 10.5 80 1.8 WNW 4 6 2 3 - - 0.0
23/09:30pm 14.4 13.3 10.6 78 2.0 N 7 13 4 7 - - 0.0
23/09:00pm 15.3 13.3 10.3 72 2.6 ENE 11 17 6 9 - - 0.0
23/08:30pm 15.3 12.9 10.1 71 2.7 ENE 13 15 7 8 - - 0.0
23/08:00pm 15.4 13.1 10.6 73 2.5 E 13 15 7 8 - - 0.0
23/07:30pm 15.2 12.9 10.4 73 2.5 E 13 17 7 9 - - 0.0
23/07:00pm 15.3 12.8 10.9 75 2.3 ESE 15 17 8 9 - - 0.0
23/06:30pm 15.2 12.7 11.0 76 2.2 ESE 15 17 8 9 - - 0.0
23/06:00pm 15.3 13.1 10.7 74 2.4 ESE 13 17 7 9 - - 0.0
23/05:30pm 15.2 13.2 10.0 71 2.7 ESE 11 13 6 7 - - 0.0
23/05:00pm 15.3 13.2 9.9 70 2.8 ESE 11 15 6 8 - - 0.0
23/04:30pm 15.4 12.8 9.5 68 3.1 SE 13 15 7 8 - - 0.0
23/04:00pm 15.6 13.8 9.5 67 3.2 SE 9 11 5 6 - - 0.0
23/03:30pm 15.7 14.0 10.0 69 3.0 SSE 9 13 5 7 - - 0.0
23/03:00pm 16.5 15.1 9.7 64 3.6 SE 7 11 4 6 - - 0.0
23/02:30pm 16.4 14.6 10.7 69 3.0 S 11 13 6 7 - - 0.0
23/02:00pm 16.6 14.1 10.9 69 3.1 SSE 15 17 8 9 - - 0.0
23/01:30pm 16.0 12.8 10.1 68 3.1 S 17 19 9 10 - - 0.0
23/01:00pm 16.4 16.1 10.0 66 3.4 ENE 2 6 1 3 - - 0.0
23/12:30pm 16.0 15.7 10.1 68 3.1 SW 2 50 1 27 - - 0.0
23/12:00pm 16.1 16.3 10.4 69 3.0 CALM 0 4 0 2 - - 0.0
23/11:30am 16.3 16.5 10.6 69 3.0 CALM 0 6 0 3 - - 0.0
23/11:00am 16.4 14.2 10.9 70 2.9 SW 13 19 7 10 - - 0.0
23/10:30am 16.7 15.9 11.2 70 3.0 WSW 6 17 3 9 - - 0.0
23/10:00am 15.5 - 11.1 75 2.4 - - - - - - - 0.0
23/09:30am 13.4 - 10.2 81 1.7 - - - - - - - 0.0
23/09:00am 11.6 - 9.5 87 1.1 - - - - - - - 0.0
23/08:30am 10.0 - 9.2 95 0.4 - - - - - - - 0.0
23/08:00am 8.7 - 8.1 96 0.3 - - - - - - - 0.0
23/07:30am 8.5 - 7.9 96 0.3 - - - - - - - 0.0
23/07:00am 8.1 - 7.7 97 0.2 - - - - - - - 0.0
23/06:30am 8.0 - 7.6 97 0.2 - - - - - - - 0.0
23/06:00am 8.2 - 7.6 96 0.3 - - - - - - - 0.0
23/05:30am 8.8 6.7 8.4 97 0.2 NW 9 13 5 7 - - 0.0
23/05:00am 8.8 7.1 8.4 97 0.2 NW 7 7 4 4 - - 0.0
23/04:30am 9.0 7.5 8.4 96 0.3 NW 6 9 3 5 - - 0.0
23/04:00am 9.0 7.3 8.4 96 0.3 NW 7 9 4 5 - - 0.0
23/03:30am 9.1 7.1 8.5 96 0.3 WNW 9 11 5 6 - - 0.0
23/03:00am 9.2 7.2 8.6 96 0.3 NW 9 11 5 6 - - 0.0
23/02:30am 9.7 8.1 8.9 95 0.4 NW 7 9 4 5 - - 0.0
23/02:00am 10.0 7.8 9.2 95 0.4 WNW 11 13 6 7 - - 0.0
23/01:30am 10.2 8.0 9.3 94 0.4 NW 11 13 6 7 - - 0.0
23/01:00am 11.2 9.9 10.0 92 0.6 NW 7 9 4 5 - - 0.0
23/12:30am 11.9 11.2 10.1 89 0.9 NW 4 7 2 4 - - 0.0
23/12:00am 11.5 10.8 9.9 90 0.8 WNW 4 6 2 3 - - 0.0
 
Date/Time
EST
Tmp

°C
App
Tmp
°C
Dew
Point
°C
Rel
Hum
%
Delta-T

°C
Wind Press
QNH
hPa
Press
MSL
hPa
Rain
since
9 am
mm
Dir
 
Spd
km/h
Gust
km/h
Spd
kts
Gust
kts
22/11:30pm 11.6 10.3 9.9 89 0.9 WNW 7 11 4 6 - - 0.0
22/11:00pm 12.4 10.7 10.0 85 1.2 WNW 9 11 5 6 - - 0.0
22/10:30pm 15.2 12.9 8.9 66 3.2 SE 11 15 6 8 - - 0.0
22/10:00pm 15.4 12.4 9.3 67 3.1 SE 15 19 8 10 - - 0.0
22/09:30pm 15.5 13.0 9.8 69 3.0 SE 13 17 7 9 - - 0.0
22/09:00pm 15.5 13.3 9.4 67 3.2 SSE 11 15 6 8 - - 0.0
22/08:30pm 15.2 13.7 9.3 68 3.0 S 7 11 4 6 - - 0.0
22/08:00pm 15.6 14.0 10.2 70 2.8 SSE 9 13 5 7 - - 0.0
22/07:30pm 15.5 12.9 9.4 67 3.2 SSE 13 17 7 9 - - 0.0
22/07:00pm 15.3 12.7 9.2 67 3.1 SSE 13 15 7 8 - - 0.0
22/06:30pm 15.3 12.9 9.9 70 2.8 SE 13 22 7 12 - - 0.0
22/06:00pm 15.3 12.8 9.7 69 2.9 SSE 13 17 7 9 - - 0.0
22/05:30pm 15.4 12.5 9.7 69 3.0 SSE 15 20 8 11 - - 0.0
22/05:00pm 15.5 12.2 9.4 67 3.2 SSE 17 19 9 10 - - 0.0
22/04:30pm 15.5 12.0 10.1 70 2.8 S 19 22 10 12 - - 0.0
22/04:00pm 15.8 12.5 11.0 73 2.6 S 19 22 10 12 - - 0.0
22/03:30pm 15.6 12.3 10.8 73 2.6 S 19 22 10 12 - - 0.0
22/03:00pm 16.3 13.0 11.5 73 2.6 S 20 26 11 14 - - 0.0
22/02:30pm 15.9 12.7 11.3 74 2.5 S 19 24 10 13 - - 0.0
22/02:00pm 15.7 11.9 11.1 74 2.5 S 22 26 12 14 - - 0.0
22/01:30pm 15.9 12.1 11.3 74 2.5 S 22 26 12 14 - - 0.0
22/01:00pm 15.8 12.4 11.2 74 2.5 S 20 24 11 13 - - 0.0
22/12:30pm 15.8 12.3 10.3 70 2.9 S 19 24 10 13 - - 0.0
22/12:00pm 16.2 13.3 10.9 71 2.8 SW 17 22 9 12 - - 0.0
22/11:30am 15.5 12.8 11.7 78 2.1 SSW 17 22 9 12 - - 0.0
22/11:00am 15.2 12.0 11.4 78 2.0 S 19 24 10 13 - - 0.0
22/10:30am 15.4 12.7 11.6 78 2.1 SSW 17 20 9 11 - - 0.0
22/10:00am 15.1 12.9 10.9 76 2.2 SSW 13 20 7 11 - - 0.0
22/09:30am 14.7 14.7 11.3 80 1.8 N 2 4 1 2 - - 0.0
22/09:00am 14.3 13.3 11.1 81 1.7 N 7 11 4 6 - - 0.0
22/08:30am 13.6 11.9 11.1 85 1.3 SW 11 17 6 9 - - 0.0
22/08:00am 12.0 11.5 10.6 91 0.7 WNW 4 7 2 4 - - 0.0
22/07:30am 11.9 10.7 10.3 90 0.8 W 7 11 4 6 - - 0.0
22/07:00am 12.4 10.3 11.0 91 0.7 SW 13 19 7 10 - - 0.0
22/06:30am 11.9 10.9 10.3 90 0.8 W 6 9 3 5 - - 0.0
22/06:00am 12.7 10.5 10.9 89 0.9 SW 13 19 7 10 - - 0.0
22/05:30am 12.9 11.2 11.1 89 0.9 SW 11 17 6 9 - - 0.0
22/05:00am 12.9 10.8 11.1 89 0.9 SW 13 20 7 11 - - 0.0
22/04:30am 12.9 11.2 11.1 89 0.9 SW 11 17 6 9 - - 0.0
22/04:00am 12.8 11.5 11.2 90 0.8 SW 9 15 5 8 - - 0.0
22/03:30am 12.0 11.1 10.6 91 0.7 W 6 7 3 4 - - 0.0
22/03:00am 12.5 11.7 11.1 91 0.7 WNW 6 7 3 4 - - 0.0
22/02:30am 12.2 10.8 10.8 91 0.7 WNW 9 9 5 5 - - 0.0
22/02:00am 11.9 10.4 10.6 92 0.7 W 9 11 5 6 - - 0.0
22/01:30am 12.1 10.7 10.8 92 0.7 W 9 11 5 6 - - 0.0
22/01:00am 12.4 11.5 10.8 90 0.8 W 6 7 3 4 - - 0.0
22/12:30am 12.8 11.8 11.0 89 0.9 W 7 9 4 5 - - 0.0
22/12:00am 13.1 12.1 11.0 87 1.1 W 7 13 4 7 - - 0.0
 
Date/Time
EST
Tmp

°C
App
Tmp
°C
Dew
Point
°C
Rel
Hum
%
Delta-T

°C
Wind Press
QNH
hPa
Press
MSL
hPa
Rain
since
9 am
mm
Dir
 
Spd
km/h
Gust
km/h
Spd
kts
Gust
kts
21/11:30pm 13.3 12.6 11.4 88 1.0 WSW 6 9 3 5 - - 0.0
21/11:00pm 13.7 13.4 11.6 87 1.1 WSW 4 6 2 3 - - 0.0
21/10:30pm 13.5 13.1 11.2 86 1.2 W 4 6 2 3 - - 0.0
21/10:00pm 14.4 14.1 11.4 82 1.6 W 4 6 2 3 - - 0.0
21/09:30pm 14.5 14.3 11.7 83 1.5 SW 4 6 2 3 - - 0.0
21/09:00pm 13.7 13.4 11.6 87 1.1 WSW 4 7 2 4 - - 0.0

Latest Capital City Observations: Canberra | Sydney | Melbourne | Brisbane | Adelaide | Perth | Hobart | Darwin

Other Formats:

Comma delimited format used in spreadsheet applications
http://www.bom.gov.au/fwo/IDN60901/IDN60901.94774.axf

JavaScript Object Notation format (JSON) in row-major order
http://www.bom.gov.au/fwo/IDN60901/IDN60901.94774.json